Four Buttes, Montana
Current Conditions -  °F | °C
As of 4:53 AM on Thursday 29 Jan 2015 (Local Time) from KOLF Reporting Station
Clear Clear  
Wind Chill: 21°   Ceiling: Unl
Heat Index: 21°   Visibility: 9mi
Dew Point: 18°   Wind: 3mph
Humidity: 88%   Direction: 290°WNW
Pressure: 30.46"   Gusts: NA
Location:  48.7328°N, 105.394°W
Report Text: KOLF 291153Z AUTO 29003KT 9SM CLR M06/M08 A3046 RMK AO2 SLP343 T10611078 11011 21061 51007
Loading
Personal Weather Stations






























Interactive Weather Map New forecast layout! Learn more

10-Day Weather Forecast

Advertisements
Track Severe Weather on mobile